createdAt,value
2023-05-11T00:00:53.466Z,17.11
2023-05-11T00:01:53.446Z,17.15
2023-05-11T00:02:53.527Z,17.04
2023-05-11T00:03:53.526Z,16.95
2023-05-11T00:04:53.429Z,17.00
2023-05-11T00:05:53.402Z,16.95
2023-05-11T00:06:53.412Z,17.00
2023-05-11T00:07:53.382Z,17.03
2023-05-11T00:08:53.377Z,17.00
2023-05-11T00:09:53.359Z,16.93
2023-05-11T00:10:53.348Z,17.00
2023-05-11T00:11:53.371Z,16.99
2023-05-11T00:12:53.325Z,16.96
2023-05-11T00:13:53.317Z,16.92
2023-05-11T00:14:53.328Z,16.86
2023-05-11T00:15:53.386Z,16.92
2023-05-11T00:16:53.292Z,16.90
2023-05-11T00:17:53.352Z,16.95
2023-05-11T00:18:53.300Z,16.90
2023-05-11T00:19:53.384Z,16.88
2023-05-11T00:20:53.267Z,16.89
2023-05-11T00:21:53.229Z,16.95
2023-05-11T00:22:53.215Z,16.89
2023-05-11T00:23:53.218Z,16.83
2023-05-11T00:24:53.231Z,16.81
2023-05-11T00:25:53.185Z,16.83
2023-05-11T00:26:53.180Z,16.80
2023-05-11T00:27:53.164Z,16.80
2023-05-11T00:28:53.160Z,16.74
2023-05-11T00:29:53.150Z,16.74
2023-05-11T00:30:53.173Z,16.60
2023-05-11T00:31:53.147Z,16.63
2023-05-11T00:32:53.136Z,16.63
2023-05-11T00:33:53.111Z,16.67
2023-05-11T00:34:53.115Z,16.63
2023-05-11T00:35:53.070Z,16.41
2023-05-11T00:36:53.066Z,16.50
2023-05-11T00:37:53.077Z,16.48
2023-05-11T00:38:53.061Z,16.34
2023-05-11T00:39:53.045Z,16.34
2023-05-11T00:40:53.040Z,16.34
2023-05-11T00:41:53.008Z,16.37
2023-05-11T00:42:53.002Z,16.31
2023-05-11T00:43:53.002Z,16.37
2023-05-11T00:44:52.990Z,16.25
2023-05-11T00:45:52.960Z,16.26
2023-05-11T00:46:52.999Z,16.27
2023-05-11T00:47:52.998Z,16.33
2023-05-11T00:48:52.923Z,16.25
2023-05-11T00:49:52.924Z,16.22
2023-05-11T00:50:52.907Z,16.34
2023-05-11T00:51:52.895Z,16.30
2023-05-11T00:52:52.898Z,16.34
2023-05-11T00:53:52.881Z,16.23
2023-05-11T00:54:52.866Z,16.23
2023-05-11T00:55:52.849Z,16.20
2023-05-11T00:56:52.849Z,16.15
2023-05-11T00:57:52.846Z,16.25
2023-05-11T00:58:52.818Z,16.18
2023-05-11T00:59:52.816Z,16.14
2023-05-11T01:00:52.857Z,16.18
2023-05-11T01:01:52.807Z,16.15
2023-05-11T01:02:52.903Z,16.26
2023-05-11T01:03:52.775Z,16.14
2023-05-11T01:04:52.775Z,16.20
2023-05-11T01:05:52.746Z,16.11
2023-05-11T01:06:52.762Z,16.04
2023-05-11T01:07:52.722Z,16.03
2023-05-11T01:08:52.723Z,15.96
2023-05-11T01:09:52.743Z,15.94
2023-05-11T01:10:52.707Z,15.96
2023-05-11T01:11:52.704Z,16.00
2023-05-11T01:12:52.667Z,16.00
2023-05-11T01:13:52.660Z,16.03
2023-05-11T01:14:52.656Z,15.92
2023-05-11T01:15:52.688Z,15.97
2023-05-11T01:16:52.661Z,15.92
2023-05-11T01:17:52.696Z,15.84
2023-05-11T01:18:52.713Z,15.82
2023-05-11T01:19:52.640Z,15.82
2023-05-11T01:20:52.595Z,15.84
2023-05-11T01:21:52.575Z,15.88
2023-05-11T01:22:52.576Z,15.89
2023-05-11T01:23:52.556Z,15.82
2023-05-11T01:24:52.582Z,15.84
2023-05-11T01:25:52.532Z,15.81
2023-05-11T01:26:52.521Z,15.79
2023-05-11T01:27:52.510Z,15.74
2023-05-11T01:28:52.530Z,15.72
2023-05-11T01:29:52.494Z,15.76
2023-05-11T01:30:52.482Z,15.74
2023-05-11T01:31:52.523Z,15.74
2023-05-11T01:32:52.468Z,15.68
2023-05-11T01:33:52.453Z,15.72
2023-05-11T01:34:52.495Z,15.74
2023-05-11T01:35:52.427Z,15.78
2023-05-11T01:36:52.410Z,15.78
2023-05-11T01:37:52.404Z,15.61
2023-05-11T01:38:52.414Z,15.60
2023-05-11T01:39:52.380Z,15.59
2023-05-11T01:40:52.366Z,15.61
2023-05-11T01:41:52.356Z,15.64
2023-05-11T01:42:52.350Z,15.68
2023-05-11T01:43:52.352Z,15.59
2023-05-11T01:44:52.323Z,15.51
2023-05-11T01:45:52.354Z,15.46
2023-05-11T01:46:52.302Z,15.43
2023-05-11T01:47:52.322Z,15.48
2023-05-11T01:48:52.290Z,15.46
2023-05-11T01:49:52.264Z,15.49
2023-05-11T01:50:52.283Z,15.45
2023-05-11T01:51:52.251Z,15.51
2023-05-11T01:52:52.236Z,15.45
2023-05-11T01:53:52.239Z,15.52
2023-05-11T01:54:52.217Z,15.48
2023-05-11T01:55:52.218Z,15.45
2023-05-11T01:56:52.193Z,15.49
2023-05-11T01:57:52.202Z,15.45
2023-05-11T01:58:52.187Z,15.46
2023-05-11T01:59:52.158Z,15.48
2023-05-11T02:00:52.154Z,15.42
2023-05-11T02:01:52.214Z,15.39
2023-05-11T02:02:52.165Z,15.43
2023-05-11T02:03:52.113Z,15.38
2023-05-11T02:04:52.106Z,15.41
2023-05-11T02:05:52.091Z,15.33
2023-05-11T02:06:52.102Z,15.41
2023-05-11T02:07:52.083Z,15.38
2023-05-11T02:08:52.088Z,15.35
2023-05-11T02:09:52.049Z,15.38
2023-05-11T02:10:52.059Z,15.43
2023-05-11T02:11:52.029Z,15.39
2023-05-11T02:12:52.037Z,15.39
2023-05-11T02:13:52.005Z,15.43
2023-05-11T02:14:52.002Z,15.46
2023-05-11T02:15:52.008Z,15.41
2023-05-11T02:16:52.113Z,15.43
2023-05-11T02:17:51.993Z,15.43
2023-05-11T02:18:52.064Z,15.43
2023-05-11T02:19:51.941Z,15.31
2023-05-11T02:20:51.940Z,15.36
2023-05-11T02:21:51.931Z,15.36
2023-05-11T02:22:51.930Z,15.30
2023-05-11T02:23:51.913Z,15.23
2023-05-11T02:24:51.893Z,15.26
2023-05-11T02:25:51.876Z,15.20
2023-05-11T02:26:51.875Z,15.23
2023-05-11T02:27:51.856Z,15.23
2023-05-11T02:28:51.847Z,15.12
2023-05-11T02:29:51.834Z,15.13
2023-05-11T02:30:51.845Z,15.11
2023-05-11T02:31:51.897Z,15.09
2023-05-11T02:32:51.872Z,15.20
2023-05-11T02:33:52.760Z,15.09
2023-05-11T02:34:51.791Z,15.05
2023-05-11T02:35:51.787Z,15.11
2023-05-11T02:36:51.776Z,15.06
2023-05-11T02:37:51.746Z,15.09
2023-05-11T02:38:51.755Z,15.12
2023-05-11T02:39:51.726Z,15.08
2023-05-11T02:40:51.742Z,15.08
2023-05-11T02:41:51.701Z,15.06
2023-05-11T02:42:51.694Z,15.08
2023-05-11T02:43:51.685Z,15.03
2023-05-11T02:44:51.684Z,15.03
2023-05-11T02:45:51.718Z,15.01
2023-05-11T02:46:51.723Z,14.91
2023-05-11T02:47:51.680Z,14.94
2023-05-11T02:48:51.634Z,14.98
2023-05-11T02:49:51.642Z,14.86
2023-05-11T02:50:51.606Z,14.84
2023-05-11T02:51:51.594Z,14.81
2023-05-11T02:52:51.586Z,14.80
2023-05-11T02:53:51.574Z,14.81
2023-05-11T02:54:51.594Z,14.65
2023-05-11T02:55:51.552Z,14.62
2023-05-11T02:56:51.558Z,14.67
2023-05-11T02:57:51.562Z,14.49
2023-05-11T02:58:51.523Z,14.50
2023-05-11T02:59:51.514Z,14.49
2023-05-11T03:00:51.575Z,14.42
2023-05-11T03:01:51.713Z,14.50
2023-05-11T03:02:51.616Z,14.49
2023-05-11T03:03:51.614Z,14.44
2023-05-11T03:04:51.458Z,14.43
2023-05-11T03:05:51.482Z,14.43
2023-05-11T03:06:51.438Z,14.46
2023-05-11T03:07:51.429Z,14.37
2023-05-11T03:08:51.432Z,14.31
2023-05-11T03:09:51.406Z,14.35
2023-05-11T03:10:51.426Z,14.35
2023-05-11T03:11:51.382Z,14.29
2023-05-11T03:12:51.368Z,14.42
2023-05-11T03:13:51.371Z,14.35
2023-05-11T03:14:51.346Z,14.34
2023-05-11T03:15:51.340Z,14.43
2023-05-11T03:16:51.356Z,14.44
2023-05-11T03:17:51.328Z,14.43
2023-05-11T03:18:51.371Z,14.35
2023-05-11T03:19:51.329Z,14.27
2023-05-11T03:20:51.288Z,14.20
2023-05-11T03:21:51.272Z,14.28
2023-05-11T03:22:51.278Z,14.24
2023-05-11T03:23:51.245Z,14.27
2023-05-11T03:24:51.264Z,14.29
2023-05-11T03:25:51.225Z,14.34
2023-05-11T03:26:51.237Z,14.42
2023-05-11T03:27:51.202Z,14.35
2023-05-11T03:28:51.229Z,14.37
2023-05-11T03:29:51.203Z,14.29
2023-05-11T03:30:51.175Z,14.17
2023-05-11T03:31:51.464Z,14.24
2023-05-11T03:32:51.233Z,14.25
2023-05-11T03:33:51.184Z,14.28
2023-05-11T03:34:51.131Z,14.31
2023-05-11T03:35:51.137Z,14.27
2023-05-11T03:36:51.122Z,14.29
2023-05-11T03:37:51.126Z,14.35
2023-05-11T03:38:51.089Z,14.37
2023-05-11T03:39:51.103Z,14.34
2023-05-11T03:40:51.068Z,14.43
2023-05-11T03:41:51.076Z,14.43
2023-05-11T03:42:51.062Z,14.43
2023-05-11T03:43:51.713Z,14.56
2023-05-11T03:44:51.032Z,14.69
2023-05-11T03:45:51.053Z,14.65
2023-05-11T03:46:51.026Z,14.69
2023-05-11T03:47:51.059Z,14.61
2023-05-11T03:48:50.978Z,14.64
2023-05-11T03:49:50.989Z,14.68
2023-05-11T03:50:50.973Z,14.65
2023-05-11T03:51:50.962Z,14.64
2023-05-11T03:52:50.937Z,14.71
2023-05-11T03:53:50.978Z,14.62
2023-05-11T03:54:50.914Z,14.78
2023-05-11T03:55:50.976Z,14.65
2023-05-11T03:56:50.909Z,14.56
2023-05-11T03:57:50.880Z,14.44
2023-05-11T03:58:50.886Z,14.49
2023-05-11T03:59:50.860Z,14.52
2023-05-11T04:00:50.859Z,14.50
2023-05-11T04:01:50.837Z,14.49
2023-05-11T04:02:50.914Z,14.46
2023-05-11T04:03:50.934Z,14.38
2023-05-11T04:04:51.009Z,14.42
2023-05-11T04:05:50.820Z,14.44
2023-05-11T04:06:50.780Z,14.44
2023-05-11T04:07:50.770Z,14.47
2023-05-11T04:08:50.755Z,14.50
2023-05-11T04:09:50.762Z,14.52
2023-05-11T04:10:50.737Z,14.57
2023-05-11T04:11:50.728Z,14.69
2023-05-11T04:12:50.736Z,14.60
2023-05-11T04:13:50.711Z,14.67
2023-05-11T04:14:50.713Z,14.69
2023-05-11T04:15:53.718Z,14.72
2023-05-11T04:16:50.705Z,14.81
2023-05-11T04:17:50.695Z,14.75
2023-05-11T04:18:50.667Z,14.90
2023-05-11T04:19:50.666Z,14.95
2023-05-11T04:20:50.625Z,15.02
2023-05-11T04:21:50.621Z,15.08
2023-05-11T04:22:50.605Z,15.05
2023-05-11T04:23:50.612Z,15.03
2023-05-11T04:24:50.587Z,15.08
2023-05-11T04:25:50.585Z,14.95
2023-05-11T04:26:50.561Z,14.67
2023-05-11T04:27:50.554Z,14.72
2023-05-11T04:28:50.560Z,14.67
2023-05-11T04:29:50.526Z,14.62
2023-05-11T04:30:50.538Z,14.60
2023-05-11T04:31:50.580Z,14.44
2023-05-11T04:32:50.553Z,14.38
2023-05-11T04:33:50.499Z,14.37
2023-05-11T04:34:50.474Z,14.27
2023-05-11T04:35:50.462Z,14.28
2023-05-11T04:36:50.456Z,14.27
2023-05-11T04:37:50.622Z,14.28
2023-05-11T04:38:50.437Z,14.50
2023-05-11T04:39:50.431Z,14.43
2023-05-11T04:40:50.446Z,14.46
2023-05-11T04:41:50.398Z,14.61
2023-05-11T04:42:50.408Z,14.75
2023-05-11T04:43:50.385Z,14.74
2023-05-11T04:44:50.369Z,14.83
2023-05-11T04:45:50.355Z,14.81
2023-05-11T04:46:50.467Z,14.78
2023-05-11T04:47:50.386Z,14.93
2023-05-11T04:48:50.327Z,15.08
2023-05-11T04:49:50.321Z,15.06
2023-05-11T04:50:50.300Z,15.11
2023-05-11T04:51:50.310Z,15.31
2023-05-11T04:52:50.306Z,15.39
2023-05-11T04:53:50.551Z,15.30
2023-05-11T04:54:50.270Z,15.31
2023-05-11T04:55:50.247Z,15.46
2023-05-11T04:56:50.295Z,15.60
2023-05-11T04:57:50.225Z,15.49
2023-05-11T04:58:50.217Z,15.56
2023-05-11T04:59:50.241Z,15.59
2023-05-11T05:00:50.215Z,15.75
2023-05-11T05:01:50.194Z,15.79
2023-05-11T05:02:50.226Z,15.94
2023-05-11T05:03:50.199Z,15.97
2023-05-11T05:04:50.149Z,16.06
2023-05-11T05:05:50.206Z,15.92
2023-05-11T05:06:50.169Z,15.89
2023-05-11T05:07:50.117Z,15.75
2023-05-11T05:08:50.131Z,15.46
2023-05-11T05:09:50.097Z,15.39
2023-05-11T05:10:50.094Z,15.49
2023-05-11T05:11:50.075Z,15.48
2023-05-11T05:12:50.085Z,15.51
2023-05-11T05:13:50.068Z,15.42
2023-05-11T05:14:50.056Z,15.31
2023-05-11T05:15:50.033Z,15.33
2023-05-11T05:16:50.049Z,15.45
2023-05-11T05:17:50.071Z,15.54
2023-05-11T05:18:50.092Z,15.60
2023-05-11T05:19:49.992Z,15.66
2023-05-11T05:20:49.976Z,15.60
2023-05-11T05:21:49.976Z,15.75
2023-05-11T05:22:49.984Z,15.75
2023-05-11T05:23:49.954Z,15.94
2023-05-11T05:24:49.964Z,15.88
2023-05-11T05:25:57.662Z,15.96
2023-05-11T05:26:49.916Z,16.01
2023-05-11T05:27:49.908Z,16.03
2023-05-11T05:28:49.894Z,16.09
2023-05-11T05:29:49.900Z,16.07
2023-05-11T05:30:49.905Z,16.11
2023-05-11T05:31:49.865Z,16.18
2023-05-11T05:32:49.921Z,16.27
2023-05-11T05:33:49.864Z,16.35
2023-05-11T05:34:49.875Z,16.45
2023-05-11T05:35:49.820Z,16.49
2023-05-11T05:36:49.814Z,16.56
2023-05-11T05:37:49.803Z,16.50
2023-05-11T05:38:49.812Z,16.55
2023-05-11T05:39:49.778Z,16.38
2023-05-11T05:40:49.766Z,16.38
2023-05-11T05:41:49.766Z,16.37
2023-05-11T05:42:49.746Z,16.49
2023-05-11T05:43:49.749Z,16.56
2023-05-11T05:44:49.718Z,16.55
2023-05-11T05:45:49.733Z,16.48
2023-05-11T05:46:49.695Z,16.49
2023-05-11T05:47:49.767Z,16.37
2023-05-11T05:48:49.707Z,16.50
2023-05-11T05:49:49.668Z,16.60
2023-05-11T05:50:49.676Z,16.78
2023-05-11T05:51:49.646Z,16.95
2023-05-11T05:52:49.662Z,17.06
2023-05-11T05:53:49.625Z,17.07
2023-05-11T05:54:49.621Z,17.28
2023-05-11T05:55:49.621Z,17.26
2023-05-11T05:56:49.585Z,17.46
2023-05-11T05:57:49.583Z,17.46
2023-05-11T05:58:49.569Z,17.41
2023-05-11T05:59:49.580Z,17.28
2023-05-11T06:00:49.558Z,17.23
2023-05-11T06:01:49.545Z,17.17
2023-05-11T06:02:49.647Z,17.14
2023-05-11T06:03:49.662Z,17.26
2023-05-11T06:04:49.531Z,17.36
2023-05-11T06:05:49.501Z,17.38
2023-05-11T06:06:49.511Z,17.35
2023-05-11T06:08:01.863Z,17.33
2023-05-11T06:08:50.455Z,17.36
2023-05-11T06:09:49.444Z,17.44
2023-05-11T06:10:49.437Z,17.64
2023-05-11T06:11:49.444Z,17.59
2023-05-11T06:12:49.415Z,17.62
2023-05-11T06:13:49.405Z,17.63
2023-05-11T06:14:49.393Z,17.69
2023-05-11T06:15:49.518Z,17.79
2023-05-11T06:16:49.410Z,17.88
2023-05-11T06:17:49.435Z,17.97
2023-05-11T06:18:49.364Z,17.97
2023-05-11T06:19:49.335Z,18.07
2023-05-11T06:20:49.389Z,18.04
2023-05-11T06:21:49.326Z,18.15
2023-05-11T06:22:49.314Z,18.13
2023-05-11T06:23:49.295Z,18.15
2023-05-11T06:24:49.286Z,18.07
2023-05-11T06:25:49.293Z,18.28
2023-05-11T06:26:49.326Z,18.25
2023-05-11T06:27:49.294Z,18.39
2023-05-11T06:28:49.296Z,18.43
2023-05-11T06:29:49.256Z,18.49
2023-05-11T06:30:49.245Z,18.44
2023-05-11T06:31:49.275Z,18.47
2023-05-11T06:32:49.261Z,18.57
2023-05-11T06:33:49.259Z,18.74
2023-05-11T06:34:49.202Z,18.70
2023-05-11T06:35:49.183Z,18.74
2023-05-11T06:36:49.158Z,18.91
2023-05-11T06:37:49.211Z,18.95
2023-05-11T06:38:49.170Z,19.06
2023-05-11T06:39:49.152Z,19.20
2023-05-11T06:40:49.112Z,19.20
2023-05-11T06:41:49.118Z,19.14
2023-05-11T06:42:49.096Z,19.31
2023-05-11T06:43:49.099Z,19.46
2023-05-11T06:44:49.148Z,19.68
2023-05-11T06:45:49.130Z,19.91
2023-05-11T06:46:49.062Z,20.16
2023-05-11T06:47:49.093Z,19.93
2023-05-11T06:48:49.081Z,19.95
2023-05-11T06:49:49.119Z,20.10
2023-05-11T06:50:49.017Z,20.49
2023-05-11T06:51:49.005Z,20.76
2023-05-11T06:52:49.004Z,20.99
2023-05-11T06:53:49.021Z,20.93
2023-05-11T06:54:49.025Z,20.98
2023-05-11T06:55:49.013Z,20.90
2023-05-11T06:56:48.959Z,20.76
2023-05-11T06:57:48.934Z,20.98
2023-05-11T06:58:48.962Z,20.96
2023-05-11T06:59:48.907Z,21.06
2023-05-11T07:00:48.947Z,21.30
2023-05-11T07:01:48.895Z,21.56
2023-05-11T07:02:48.969Z,21.91
2023-05-11T07:03:48.875Z,21.72
2023-05-11T07:04:48.878Z,21.81
2023-05-11T07:05:48.858Z,21.91
2023-05-11T07:06:48.827Z,22.19
2023-05-11T07:07:48.837Z,22.41
2023-05-11T07:08:48.820Z,22.74
2023-05-11T07:09:48.796Z,22.84
2023-05-11T07:10:48.887Z,22.75
2023-05-11T07:11:48.777Z,22.35
2023-05-11T07:12:48.789Z,22.34
2023-05-11T07:13:48.752Z,22.50
2023-05-11T07:14:48.749Z,22.74
2023-05-11T07:15:48.737Z,22.67
2023-05-11T07:16:48.779Z,22.72
2023-05-11T07:17:48.742Z,22.96
2023-05-11T07:18:48.737Z,23.19
2023-05-11T07:19:48.704Z,23.46
2023-05-11T07:20:48.683Z,23.53
2023-05-11T07:21:48.691Z,23.83
2023-05-11T07:22:48.676Z,23.90
2023-05-11T07:23:48.660Z,23.92
2023-05-11T07:24:48.637Z,23.70
2023-05-11T07:25:48.624Z,23.39
2023-05-11T07:26:48.724Z,23.32
2023-05-11T07:27:48.605Z,23.50
2023-05-11T07:28:48.591Z,23.70
2023-05-11T07:29:48.644Z,23.83
2023-05-11T07:30:48.583Z,24.22
2023-05-11T07:31:48.704Z,24.56
2023-05-11T07:32:48.598Z,24.77
2023-05-11T07:33:48.559Z,25.05
2023-05-11T07:34:48.548Z,25.28
2023-05-11T07:35:48.521Z,25.57
2023-05-11T07:36:48.506Z,25.69
2023-05-11T07:37:48.496Z,25.98
2023-05-11T07:38:48.501Z,26.01
2023-05-11T07:39:48.476Z,26.28
2023-05-11T07:40:48.541Z,26.28
2023-05-11T07:41:48.454Z,26.04
2023-05-11T07:42:49.179Z,25.57
2023-05-11T07:43:48.466Z,25.13
2023-05-11T07:44:48.449Z,25.22
2023-05-11T07:45:48.439Z,25.42
2023-05-11T07:46:48.534Z,25.10
2023-05-11T07:47:48.416Z,25.12
2023-05-11T07:48:48.385Z,25.27
2023-05-11T07:49:48.431Z,25.34
2023-05-11T07:50:48.358Z,25.57
2023-05-11T07:51:48.356Z,25.91
2023-05-11T07:52:49.370Z,26.01
2023-05-11T07:53:48.336Z,26.40
2023-05-11T07:54:48.360Z,26.35
2023-05-11T07:55:48.351Z,25.86
2023-05-11T07:56:48.307Z,25.67
2023-05-11T07:57:48.301Z,25.83
2023-05-11T07:58:48.318Z,26.15
2023-05-11T07:59:48.297Z,26.28
2023-05-11T08:00:48.257Z,26.58
2023-05-11T08:01:48.277Z,26.86
2023-05-11T08:02:48.489Z,27.01
2023-05-11T08:03:48.290Z,27.28
2023-05-11T08:04:48.232Z,27.42
2023-05-11T08:05:48.237Z,27.59
2023-05-11T08:06:48.198Z,27.50
2023-05-11T08:07:48.188Z,27.05
2023-05-11T08:08:48.201Z,26.80
2023-05-11T08:09:48.182Z,26.80
2023-05-11T08:10:48.194Z,27.04
2023-05-11T08:11:48.163Z,27.11
2023-05-11T08:12:48.131Z,27.10
2023-05-11T08:13:48.126Z,27.02
2023-05-11T08:14:48.157Z,26.98
2023-05-11T08:15:48.119Z,26.96
2023-05-11T08:16:48.096Z,27.09
2023-05-11T08:17:48.113Z,26.91
2023-05-11T08:18:48.128Z,26.37
2023-05-11T08:19:48.062Z,25.44
2023-05-11T08:20:48.085Z,25.43
2023-05-11T08:21:48.048Z,25.65
2023-05-11T08:22:48.037Z,25.94
2023-05-11T08:23:48.022Z,26.02
2023-05-11T08:24:48.027Z,25.93
2023-05-11T08:25:48.026Z,25.82
2023-05-11T08:26:48.698Z,25.50
2023-05-11T08:27:47.979Z,25.71
2023-05-11T08:28:47.972Z,26.05
2023-05-11T08:29:47.983Z,26.29
2023-05-11T08:30:47.965Z,26.43
2023-05-11T08:31:48.077Z,26.83
2023-05-11T08:32:57.868Z,26.76
2023-05-11T08:33:49.006Z,26.72
2023-05-11T08:34:48.047Z,26.59
2023-05-11T08:35:47.902Z,26.42
2023-05-11T08:36:47.912Z,26.46
2023-05-11T08:37:47.876Z,26.76
2023-05-11T08:38:47.865Z,26.81
2023-05-11T08:39:48.162Z,26.68
2023-05-11T08:40:47.842Z,26.50
2023-05-11T08:41:47.863Z,26.62
2023-05-11T08:42:47.835Z,26.68
2023-05-11T08:43:47.816Z,26.43
2023-05-11T08:44:47.806Z,26.49
2023-05-11T08:45:47.853Z,26.57
2023-05-11T08:46:47.818Z,26.65
2023-05-11T08:47:47.804Z,26.50
2023-05-11T08:48:47.769Z,26.36
2023-05-11T08:49:47.758Z,26.17
2023-05-11T08:50:47.760Z,25.97
2023-05-11T08:51:47.732Z,25.93
2023-05-11T08:52:47.731Z,25.91
2023-05-11T08:53:47.714Z,25.99
2023-05-11T08:54:47.768Z,25.83
2023-05-11T08:55:47.714Z,25.71
2023-05-11T08:56:47.695Z,26.06
2023-05-11T08:57:47.674Z,26.29
2023-05-11T08:58:47.659Z,26.17
2023-05-11T08:59:47.672Z,26.31
2023-05-11T09:00:47.640Z,26.12
2023-05-11T09:01:47.647Z,26.24
2023-05-11T09:02:47.676Z,26.28
2023-05-11T09:03:47.628Z,26.22
2023-05-11T09:04:49.193Z,26.29
2023-05-11T09:05:47.622Z,26.40
2023-05-11T09:06:47.579Z,26.52
2023-05-11T09:07:47.591Z,26.67
2023-05-11T09:08:47.591Z,26.94
2023-05-11T09:09:47.639Z,26.94
2023-05-11T09:10:47.545Z,27.05
2023-05-11T09:11:47.547Z,27.23
2023-05-11T09:12:47.568Z,27.47
2023-05-11T09:13:47.517Z,27.48
2023-05-11T09:14:47.540Z,27.57
2023-05-11T09:15:47.536Z,27.64
2023-05-11T09:16:47.498Z,27.88
2023-05-11T09:17:47.526Z,27.91
2023-05-11T09:18:47.597Z,27.98
2023-05-11T09:19:47.465Z,28.07
2023-05-11T09:20:47.434Z,28.17
2023-05-11T09:21:47.468Z,27.92
2023-05-11T09:22:47.418Z,27.94
2023-05-11T09:23:47.411Z,27.62
2023-05-11T09:24:47.397Z,27.59
2023-05-11T09:25:47.389Z,27.42
2023-05-11T09:26:47.408Z,27.32
2023-05-11T09:27:47.417Z,27.11
2023-05-11T09:28:47.517Z,26.99
2023-05-11T09:29:51.821Z,27.13
2023-05-11T09:30:47.340Z,27.24
2023-05-11T09:31:47.445Z,27.42
2023-05-11T09:32:47.339Z,27.71
2023-05-11T09:33:47.333Z,27.70
2023-05-11T09:34:47.315Z,27.82
2023-05-11T09:35:47.347Z,27.17
2023-05-11T09:36:47.277Z,26.65
2023-05-11T09:37:47.303Z,26.67
2023-05-11T09:38:47.258Z,26.83
2023-05-11T09:40:48.237Z,27.05
2023-05-11T09:41:47.225Z,27.28
2023-05-11T09:42:47.228Z,27.48
2023-05-11T09:43:47.258Z,27.47
2023-05-11T09:44:47.196Z,27.13
2023-05-11T09:45:47.188Z,26.76
2023-05-11T09:46:47.228Z,26.67
2023-05-11T09:47:49.001Z,26.76
2023-05-11T09:48:47.158Z,26.84
2023-05-11T09:49:47.158Z,26.92
2023-05-11T09:50:47.162Z,26.49
2023-05-11T09:51:47.148Z,25.91
2023-05-11T09:52:47.131Z,25.12
2023-05-11T09:53:47.133Z,24.54
2023-05-11T09:54:47.105Z,24.61
2023-05-11T09:55:47.083Z,24.50
2023-05-11T09:56:47.093Z,24.71
2023-05-11T09:57:47.057Z,24.75
2023-05-11T09:58:47.054Z,24.98
2023-05-11T09:59:47.043Z,24.94
2023-05-11T10:00:47.032Z,24.83
2023-05-11T10:01:47.119Z,25.00
2023-05-11T10:02:47.126Z,25.28
2023-05-11T10:03:47.188Z,25.42
2023-05-11T10:04:47.008Z,25.46
2023-05-11T10:05:46.981Z,25.57
2023-05-11T10:06:47.006Z,25.93
2023-05-11T10:07:46.956Z,26.29
2023-05-11T10:08:46.971Z,26.44
2023-05-11T10:09:46.935Z,26.31
2023-05-11T10:10:46.936Z,26.39
2023-05-11T10:11:46.956Z,26.22
2023-05-11T10:12:46.911Z,26.04
2023-05-11T10:13:46.896Z,25.75
2023-05-11T10:14:46.886Z,25.72
2023-05-11T10:15:46.926Z,25.32
2023-05-11T10:16:46.874Z,25.42
2023-05-11T10:17:46.884Z,25.56
2023-05-11T10:18:46.947Z,25.46
2023-05-11T10:19:46.851Z,25.35
2023-05-11T10:20:46.842Z,25.57
2023-05-11T10:21:46.814Z,25.77
2023-05-11T10:22:46.834Z,26.01
2023-05-11T10:23:46.790Z,25.80
2023-05-11T10:24:46.799Z,25.57
2023-05-11T10:25:46.771Z,25.61
2023-05-11T10:26:46.766Z,25.52
2023-05-11T10:27:46.752Z,25.31
2023-05-11T10:28:46.741Z,24.94
2023-05-11T10:29:46.784Z,24.64
2023-05-11T10:30:46.728Z,24.52
2023-05-11T10:31:46.729Z,24.41
2023-05-11T10:32:46.726Z,24.19
2023-05-11T10:33:49.095Z,24.19
2023-05-11T10:34:46.695Z,24.10
2023-05-11T10:35:46.661Z,23.95
2023-05-11T10:36:46.705Z,23.86
2023-05-11T10:37:46.651Z,23.89
2023-05-11T10:38:46.689Z,23.90
2023-05-11T10:39:49.205Z,24.12
2023-05-11T10:40:46.613Z,24.22
2023-05-11T10:41:46.603Z,24.35
2023-05-11T10:42:46.593Z,24.12
2023-05-11T10:43:46.607Z,24.01
2023-05-11T10:44:46.581Z,23.87
2023-05-11T10:45:46.591Z,23.83
2023-05-11T10:46:46.547Z,23.83
2023-05-11T10:47:46.661Z,23.76
2023-05-11T10:48:46.574Z,23.71
2023-05-11T10:49:46.510Z,23.65
2023-05-11T10:50:46.508Z,23.62
2023-05-11T10:51:46.508Z,23.47
2023-05-11T10:52:46.481Z,23.53
2023-05-11T10:53:46.471Z,23.77
2023-05-11T10:54:46.516Z,23.75
2023-05-11T10:55:47.201Z,23.72
2023-05-11T10:56:46.440Z,23.75
2023-05-11T10:57:46.427Z,23.75
2023-05-11T10:58:46.422Z,23.77
2023-05-11T10:59:46.407Z,23.75
2023-05-11T11:00:46.577Z,23.72
2023-05-11T11:01:46.454Z,23.72
2023-05-11T11:02:46.467Z,23.72
2023-05-11T11:03:46.365Z,23.67
2023-05-11T11:04:46.363Z,23.76
2023-05-11T11:05:46.392Z,23.53
2023-05-11T11:06:46.361Z,23.39
2023-05-11T11:07:46.335Z,23.23
2023-05-11T11:08:46.311Z,23.04
2023-05-11T11:09:46.297Z,23.09
2023-05-11T11:10:46.414Z,23.19
2023-05-11T11:11:46.304Z,23.17
2023-05-11T11:12:46.267Z,23.22
2023-05-11T11:13:46.265Z,23.24
2023-05-11T11:14:46.243Z,23.24
2023-05-11T11:15:46.232Z,23.38
2023-05-11T11:16:46.279Z,23.47
2023-05-11T11:17:46.218Z,23.43
2023-05-11T11:18:46.216Z,23.50
2023-05-11T11:19:46.194Z,23.43
2023-05-11T11:20:46.199Z,23.45
2023-05-11T11:21:46.208Z,23.40
2023-05-11T11:22:46.157Z,23.47
2023-05-11T11:23:46.141Z,23.55
2023-05-11T11:24:46.140Z,23.62
2023-05-11T11:26:56.074Z,23.64
2023-05-11T11:27:56.003Z,23.79
2023-05-11T11:28:56.026Z,23.89
2023-05-11T11:29:55.984Z,23.98
2023-05-11T11:30:56.035Z,23.97
2023-05-11T11:31:55.969Z,24.07
2023-05-11T11:32:55.977Z,24.16
2023-05-11T11:33:55.977Z,24.08
2023-05-11T11:34:55.928Z,23.85
2023-05-11T11:35:55.920Z,23.75
2023-05-11T11:36:55.953Z,23.68
2023-05-11T11:37:55.937Z,23.43
2023-05-11T11:38:55.920Z,23.39
2023-05-11T11:40:05.547Z,23.23
2023-05-11T11:40:57.141Z,23.26
2023-05-11T11:41:55.854Z,23.27
2023-05-11T11:42:55.855Z,23.23
2023-05-11T11:43:55.848Z,23.29
2023-05-11T11:44:55.880Z,23.24
2023-05-11T11:45:55.861Z,23.35
2023-05-11T11:46:55.940Z,23.35
2023-05-11T11:47:55.838Z,23.31
2023-05-11T11:48:55.781Z,23.19
2023-05-11T11:49:55.783Z,22.96
2023-05-11T11:50:55.756Z,22.92
2023-05-11T11:51:55.791Z,22.92
2023-05-11T11:52:55.755Z,23.02
2023-05-11T11:53:55.726Z,23.08
2023-05-11T11:54:55.707Z,23.15
2023-05-11T11:55:55.705Z,23.29
2023-05-11T11:56:55.713Z,23.11
2023-05-11T11:57:55.749Z,23.07
2023-05-11T11:58:55.763Z,23.07
2023-05-11T11:59:55.652Z,23.20
2023-05-11T12:00:56.688Z,23.26
2023-05-11T12:01:55.655Z,23.24
2023-05-11T12:02:55.680Z,23.27
2023-05-11T12:03:55.904Z,23.24
2023-05-11T12:04:55.745Z,23.26
2023-05-11T12:05:55.589Z,23.19
2023-05-11T12:06:55.580Z,23.11
2023-05-11T12:07:55.581Z,23.09
2023-05-11T12:08:55.566Z,23.02
2023-05-11T12:09:55.634Z,23.04
2023-05-11T12:10:55.551Z,22.96
2023-05-11T12:11:55.531Z,22.97
2023-05-11T12:12:55.670Z,22.96
2023-05-11T12:13:55.532Z,22.90
2023-05-11T12:14:55.518Z,22.86
2023-05-11T12:15:55.478Z,22.74
2023-05-11T12:16:55.652Z,22.69
2023-05-11T12:17:55.528Z,22.56
2023-05-11T12:18:56.368Z,22.49
2023-05-11T12:19:55.451Z,22.43
2023-05-11T12:20:55.422Z,22.50
2023-05-11T12:21:55.412Z,22.60
2023-05-11T12:22:55.429Z,22.69
2023-05-11T12:23:55.422Z,22.43
2023-05-11T12:24:55.442Z,22.53
2023-05-11T12:25:55.551Z,22.54
2023-05-11T12:26:55.366Z,22.41
2023-05-11T12:27:55.457Z,22.50
2023-05-11T12:28:55.380Z,22.56
2023-05-11T12:29:55.351Z,22.47
2023-05-11T12:30:55.336Z,22.53
2023-05-11T12:31:55.377Z,22.62
2023-05-11T12:32:56.892Z,22.60
2023-05-11T12:33:55.295Z,22.49
2023-05-11T12:34:55.278Z,22.47
2023-05-11T12:35:55.273Z,22.53
2023-05-11T12:36:55.275Z,22.62
2023-05-11T12:37:55.269Z,22.64
2023-05-11T12:38:55.223Z,22.67
2023-05-11T12:39:55.220Z,22.68
2023-05-11T12:40:55.209Z,22.77
2023-05-11T12:41:55.254Z,22.84
2023-05-11T12:42:55.197Z,22.83
2023-05-11T12:43:55.193Z,22.90
2023-05-11T12:44:55.165Z,22.87
2023-05-11T12:45:55.201Z,22.94
2023-05-11T12:46:55.162Z,22.72
2023-05-11T12:47:55.272Z,22.71
2023-05-11T12:48:55.150Z,22.71
2023-05-11T12:49:55.113Z,22.65
2023-05-11T12:50:55.131Z,22.65
2023-05-11T12:51:55.122Z,22.78
2023-05-11T12:52:55.100Z,22.67
2023-05-11T12:53:55.106Z,22.50
2023-05-11T12:54:55.123Z,22.37